createdAt,value
2017-03-16T00:00:16.966Z,1015.77
2017-03-16T00:01:16.974Z,1015.75
2017-03-16T00:02:16.974Z,1015.77
2017-03-16T00:03:16.983Z,1015.79
2017-03-16T00:04:16.992Z,1015.8
2017-03-16T00:05:17.001Z,1015.78
2017-03-16T00:06:17.010Z,1015.76
2017-03-16T00:07:17.008Z,1015.8
2017-03-16T00:08:17.017Z,1015.74
2017-03-16T00:09:17.085Z,1015.74
2017-03-16T00:10:17.094Z,1015.72
2017-03-16T00:11:17.045Z,1015.69
2017-03-16T00:12:17.060Z,1015.7
2017-03-16T00:13:17.076Z,1015.73
2017-03-16T00:14:17.091Z,1015.71
2017-03-16T00:15:17.107Z,1015.71
2017-03-16T00:16:17.122Z,1015.73
2017-03-16T00:17:17.137Z,1015.7
2017-03-16T00:18:17.153Z,1015.68
2017-03-16T00:19:17.167Z,1015.67
2017-03-16T00:20:17.181Z,1015.65
2017-03-16T00:21:17.199Z,1015.69
2017-03-16T00:22:17.214Z,1015.69
2017-03-16T00:23:17.226Z,1015.68
2017-03-16T00:24:17.245Z,1015.69
2017-03-16T00:25:17.275Z,1015.67
2017-03-16T00:26:17.273Z,1015.67
2017-03-16T00:27:17.288Z,1015.7
2017-03-16T00:28:17.304Z,1015.64
2017-03-16T00:29:17.320Z,1015.63
2017-03-16T00:30:17.335Z,1015.62
2017-03-16T00:31:17.349Z,1015.61
2017-03-16T00:32:17.366Z,1015.58
2017-03-16T00:33:17.382Z,1015.58
2017-03-16T00:34:17.395Z,1015.62
2017-03-16T00:35:17.413Z,1015.6
2017-03-16T00:36:17.425Z,1015.56
2017-03-16T00:37:17.442Z,1015.55
2017-03-16T00:38:17.457Z,1015.52
2017-03-16T00:39:17.471Z,1015.49
2017-03-16T00:40:17.488Z,1015.51
2017-03-16T00:41:17.504Z,1015.53
2017-03-16T00:42:17.517Z,1015.5
2017-03-16T00:43:17.532Z,1015.55
2017-03-16T00:44:17.548Z,1015.52
2017-03-16T00:45:17.562Z,1015.49
2017-03-16T00:46:17.579Z,1015.46
2017-03-16T00:47:17.595Z,1015.46
2017-03-16T00:48:17.610Z,1015.4
2017-03-16T00:49:17.623Z,1015.41
2017-03-16T00:50:17.639Z,1015.47
2017-03-16T00:51:17.656Z,1015.47
2017-03-16T00:52:17.670Z,1015.47
2017-03-16T00:53:17.684Z,1015.45
2017-03-16T00:54:17.699Z,1015.42
2017-03-16T00:55:17.724Z,1015.42
2017-03-16T00:56:17.730Z,1015.36
2017-03-16T00:57:17.746Z,1015.34
2017-03-16T00:58:17.761Z,1015.32
2017-03-16T00:59:17.775Z,1015.28
2017-03-16T01:00:17.793Z,1015.3
2017-03-16T01:01:17.806Z,1015.25
2017-03-16T01:02:17.823Z,1015.25
2017-03-16T01:03:17.837Z,1015.23
2017-03-16T01:04:17.852Z,1015.24
2017-03-16T01:05:17.868Z,1015.25
2017-03-16T01:06:17.881Z,1015.24
2017-03-16T01:07:17.898Z,1015.25
2017-03-16T01:08:17.913Z,1015.23
2017-03-16T01:09:17.929Z,1015.26
2017-03-16T01:10:17.944Z,1015.25
2017-03-16T01:11:17.959Z,1015.26
2017-03-16T01:12:17.975Z,1015.27
2017-03-16T01:13:17.989Z,1015.28
2017-03-16T01:14:18.004Z,1015.24
2017-03-16T01:15:18.022Z,1015.24
2017-03-16T01:16:18.035Z,1015.21
2017-03-16T01:17:18.049Z,1015.19
2017-03-16T01:18:18.065Z,1015.22
2017-03-16T01:19:18.082Z,1015.24
2017-03-16T01:20:18.095Z,1015.24
2017-03-16T01:21:18.111Z,1015.28
2017-03-16T01:22:18.128Z,1015.27
2017-03-16T01:23:18.141Z,1015.28
2017-03-16T01:24:18.159Z,1015.29
2017-03-16T01:25:18.173Z,1015.26
2017-03-16T01:26:18.187Z,1015.32
2017-03-16T01:27:18.203Z,1015.29
2017-03-16T01:28:18.219Z,1015.28
2017-03-16T01:29:18.232Z,1015.34
2017-03-16T01:30:18.247Z,1015.29
2017-03-16T01:31:18.263Z,1015.29
2017-03-16T01:32:18.276Z,1015.31
2017-03-16T01:33:18.293Z,1015.29
2017-03-16T01:34:18.309Z,1015.3
2017-03-16T01:35:18.324Z,1015.29
2017-03-16T01:36:18.338Z,1015.27
2017-03-16T01:37:18.355Z,1015.24
2017-03-16T01:38:18.368Z,1015.27
2017-03-16T01:39:18.382Z,1015.25
2017-03-16T01:40:18.399Z,1015.28
2017-03-16T01:41:18.414Z,1015.25
2017-03-16T01:42:18.428Z,1015.23
2017-03-16T01:43:18.444Z,1015.25
2017-03-16T01:44:18.459Z,1015.21
2017-03-16T01:45:18.474Z,1015.25
2017-03-16T01:46:18.490Z,1015.25
2017-03-16T01:47:18.504Z,1015.22
2017-03-16T01:48:18.520Z,1015.22
2017-03-16T01:49:18.534Z,1015.19
2017-03-16T01:50:18.549Z,1015.14
2017-03-16T01:51:18.565Z,1015.13
2017-03-16T01:52:18.580Z,1015.12
2017-03-16T01:53:18.596Z,1015.09
2017-03-16T01:54:18.610Z,1015.09
2017-03-16T01:55:18.625Z,1015.04
2017-03-16T01:56:18.639Z,1015.09
2017-03-16T01:57:18.656Z,1015.11
2017-03-16T01:58:18.669Z,1015.09
2017-03-16T01:59:18.686Z,1015.08
2017-03-16T02:00:18.699Z,1015.06
2017-03-16T02:01:18.716Z,1015
2017-03-16T02:02:18.729Z,1015.02
2017-03-16T02:03:18.747Z,1014.99
2017-03-16T02:04:18.768Z,1015
2017-03-16T02:05:18.774Z,1014.94
2017-03-16T02:06:18.791Z,1014.95
2017-03-16T02:07:18.804Z,1014.92
2017-03-16T02:08:18.819Z,1014.94
2017-03-16T02:09:18.835Z,1014.88
2017-03-16T02:10:18.849Z,1014.91
2017-03-16T02:11:18.865Z,1014.88
2017-03-16T02:12:18.882Z,1014.87
2017-03-16T02:13:18.894Z,1014.83
2017-03-16T02:14:18.909Z,1014.84
2017-03-16T02:15:18.925Z,1014.77
2017-03-16T02:16:18.938Z,1014.81
2017-03-16T02:17:18.955Z,1014.81
2017-03-16T02:18:18.970Z,1014.8
2017-03-16T02:19:18.985Z,1014.76
2017-03-16T02:20:19.000Z,1014.77
2017-03-16T02:21:19.013Z,1014.75
2017-03-16T02:22:19.029Z,1014.75
2017-03-16T02:23:19.044Z,1014.76
2017-03-16T02:24:19.058Z,1014.75
2017-03-16T02:25:19.076Z,1014.72
2017-03-16T02:26:19.090Z,1014.73
2017-03-16T02:27:19.104Z,1014.7
2017-03-16T02:28:19.117Z,1014.7
2017-03-16T02:29:19.134Z,1014.7
2017-03-16T02:30:19.148Z,1014.68
2017-03-16T02:31:19.163Z,1014.71
2017-03-16T02:32:19.177Z,1014.73
2017-03-16T02:33:19.194Z,1014.72
2017-03-16T02:34:19.208Z,1014.73
2017-03-16T02:35:19.223Z,1014.7
2017-03-16T02:36:19.237Z,1014.67
2017-03-16T02:37:19.257Z,1014.67
2017-03-16T02:38:19.268Z,1014.68
2017-03-16T02:39:19.282Z,1014.71
2017-03-16T02:40:19.298Z,1014.64
2017-03-16T02:41:19.312Z,1014.67
2017-03-16T02:42:19.329Z,1014.66
2017-03-16T02:43:19.343Z,1014.68
2017-03-16T02:44:19.368Z,1014.65
2017-03-16T02:45:19.374Z,1014.64
2017-03-16T02:46:19.389Z,1014.67
2017-03-16T02:47:19.403Z,1014.59
2017-03-16T02:48:19.419Z,1014.62
2017-03-16T02:49:19.432Z,1014.6
2017-03-16T02:50:19.447Z,1014.6
2017-03-16T02:51:19.463Z,1014.56
2017-03-16T02:52:19.477Z,1014.53
2017-03-16T02:53:19.492Z,1014.56
2017-03-16T02:54:19.506Z,1014.53
2017-03-16T02:55:19.522Z,1014.57
2017-03-16T02:56:19.537Z,1014.53
2017-03-16T02:57:19.553Z,1014.5
2017-03-16T02:58:19.566Z,1014.46
2017-03-16T02:59:19.582Z,1014.47
2017-03-16T03:00:19.596Z,1014.48
2017-03-16T03:01:19.610Z,1014.53
2017-03-16T03:02:19.627Z,1014.55
2017-03-16T03:03:19.639Z,1014.55
2017-03-16T03:04:19.655Z,1014.59
2017-03-16T03:05:19.670Z,1014.61
2017-03-16T03:06:19.685Z,1014.67
2017-03-16T03:07:19.701Z,1014.7
2017-03-16T03:08:19.714Z,1014.69
2017-03-16T03:09:19.733Z,1014.7
2017-03-16T03:10:19.746Z,1014.68
2017-03-16T03:11:19.761Z,1014.67
2017-03-16T03:12:19.774Z,1014.69
2017-03-16T03:13:19.789Z,1014.69
2017-03-16T03:14:19.804Z,1014.72
2017-03-16T03:15:19.819Z,1014.71
2017-03-16T03:16:19.833Z,1014.74
2017-03-16T03:17:19.849Z,1014.76
2017-03-16T03:18:19.864Z,1014.74
2017-03-16T03:19:19.878Z,1014.82
2017-03-16T03:20:19.893Z,1014.8
2017-03-16T03:21:19.913Z,1014.81
2017-03-16T03:22:19.921Z,1014.8
2017-03-16T03:23:19.936Z,1014.79
2017-03-16T03:24:19.951Z,1014.79
2017-03-16T03:25:19.966Z,1014.8
2017-03-16T03:26:20.004Z,1014.8
2017-03-16T03:27:19.996Z,1014.8
2017-03-16T03:28:20.011Z,1014.78
2017-03-16T03:29:20.025Z,1014.78
2017-03-16T03:30:20.039Z,1014.74
2017-03-16T03:31:20.055Z,1014.74
2017-03-16T03:32:20.069Z,1014.7
2017-03-16T03:33:20.086Z,1014.69
2017-03-16T03:34:20.100Z,1014.62
2017-03-16T03:35:20.115Z,1014.65
2017-03-16T03:36:20.129Z,1014.66
2017-03-16T03:37:20.143Z,1014.62
2017-03-16T03:38:20.157Z,1014.62
2017-03-16T03:39:20.173Z,1014.64
2017-03-16T03:40:20.187Z,1014.63
2017-03-16T03:41:20.203Z,1014.62
2017-03-16T03:42:20.217Z,1014.64
2017-03-16T03:43:20.231Z,1014.66
2017-03-16T03:44:20.246Z,1014.68
2017-03-16T03:45:20.261Z,1014.66
2017-03-16T03:46:20.279Z,1014.66
2017-03-16T03:47:20.289Z,1014.68
2017-03-16T03:48:20.304Z,1014.69
2017-03-16T03:49:20.319Z,1014.68
2017-03-16T03:50:20.334Z,1014.65
2017-03-16T03:51:20.347Z,1014.67
2017-03-16T03:52:20.364Z,1014.63
2017-03-16T03:53:20.378Z,1014.62
2017-03-16T03:54:20.393Z,1014.62
2017-03-16T03:55:20.407Z,1014.59
2017-03-16T03:56:20.421Z,1014.61
2017-03-16T03:57:20.437Z,1014.59
2017-03-16T03:58:20.452Z,1014.54
2017-03-16T03:59:20.466Z,1014.54
2017-03-16T04:00:20.480Z,1014.55
2017-03-16T04:01:20.496Z,1014.56
2017-03-16T04:02:20.508Z,1014.6
2017-03-16T04:03:20.522Z,1014.59
2017-03-16T04:04:20.538Z,1014.62
2017-03-16T04:05:20.554Z,1014.64
2017-03-16T04:06:20.567Z,1014.65
2017-03-16T04:07:20.581Z,1014.68
2017-03-16T04:08:20.598Z,1014.7
2017-03-16T04:09:20.610Z,1014.71
2017-03-16T04:10:20.627Z,1014.7
2017-03-16T04:11:20.642Z,1014.63
2017-03-16T04:12:20.655Z,1014.68
2017-03-16T04:13:20.668Z,1014.68
2017-03-16T04:14:20.685Z,1014.7
2017-03-16T04:15:20.699Z,1014.69
2017-03-16T04:16:20.713Z,1014.66
2017-03-16T04:17:20.728Z,1014.69
2017-03-16T04:18:20.743Z,1014.64
2017-03-16T04:19:20.759Z,1014.63
2017-03-16T04:20:20.771Z,1014.6
2017-03-16T04:21:20.788Z,1014.57
2017-03-16T04:22:20.799Z,1014.62
2017-03-16T04:23:20.816Z,1014.65
2017-03-16T04:24:20.830Z,1014.63
2017-03-16T04:25:20.845Z,1014.65
2017-03-16T04:26:20.860Z,1014.62
2017-03-16T04:27:20.873Z,1014.58
2017-03-16T04:28:20.887Z,1014.62
2017-03-16T04:29:20.902Z,1014.58
2017-03-16T04:30:20.917Z,1014.58
2017-03-16T04:31:20.931Z,1014.59
2017-03-16T04:32:20.946Z,1014.58
2017-03-16T04:33:20.963Z,1014.56
2017-03-16T04:34:20.975Z,1014.56
2017-03-16T04:35:20.989Z,1014.51
2017-03-16T04:36:21.003Z,1014.52
2017-03-16T04:37:21.019Z,1014.53
2017-03-16T04:38:21.031Z,1014.5
2017-03-16T04:39:21.046Z,1014.53
2017-03-16T04:40:21.063Z,1014.52
2017-03-16T04:41:21.076Z,1014.55
2017-03-16T04:42:21.088Z,1014.55
2017-03-16T04:43:21.104Z,1014.55
2017-03-16T04:44:21.122Z,1014.55
2017-03-16T04:45:21.135Z,1014.53
2017-03-16T04:46:21.147Z,1014.53
2017-03-16T04:47:21.163Z,1014.52
2017-03-16T04:48:21.177Z,1014.47
2017-03-16T04:49:21.192Z,1014.44
2017-03-16T04:50:21.206Z,1014.44
2017-03-16T04:51:21.220Z,1014.46
2017-03-16T04:52:21.236Z,1014.38
2017-03-16T04:53:21.251Z,1014.42
2017-03-16T04:54:21.263Z,1014.45
2017-03-16T04:55:21.278Z,1014.4
2017-03-16T04:56:21.294Z,1014.39
2017-03-16T04:57:21.305Z,1014.4
2017-03-16T04:58:21.321Z,1014.33
2017-03-16T04:59:21.335Z,1014.34
2017-03-16T05:00:21.349Z,1014.37
2017-03-16T05:01:21.365Z,1014.39
2017-03-16T05:02:21.378Z,1014.34
2017-03-16T05:03:21.392Z,1014.39
2017-03-16T05:04:21.406Z,1014.38
2017-03-16T05:05:21.423Z,1014.37
2017-03-16T05:06:21.441Z,1014.38
2017-03-16T05:07:21.450Z,1014.28
2017-03-16T05:08:21.465Z,1014.34
2017-03-16T05:09:21.479Z,1014.33
2017-03-16T05:10:21.494Z,1014.4
2017-03-16T05:11:21.507Z,1014.4
2017-03-16T05:12:21.523Z,1014.41
2017-03-16T05:13:21.537Z,1014.44
2017-03-16T05:14:21.553Z,1014.4
2017-03-16T05:15:21.566Z,1014.46
2017-03-16T05:16:21.581Z,1014.48
2017-03-16T05:17:21.594Z,1014.47
2017-03-16T05:18:21.610Z,1014.51
2017-03-16T05:19:21.625Z,1014.45
2017-03-16T05:20:21.637Z,1014.44
2017-03-16T05:21:21.652Z,1014.38
2017-03-16T05:22:21.666Z,1014.37
2017-03-16T05:23:21.679Z,1014.31
2017-03-16T05:24:21.694Z,1014.33
2017-03-16T05:25:21.710Z,1014.29
2017-03-16T05:26:21.723Z,1014.31
2017-03-16T05:27:21.737Z,1014.36
2017-03-16T05:28:21.787Z,1014.33
2017-03-16T05:29:21.767Z,1014.34
2017-03-16T05:30:21.779Z,1014.28
2017-03-16T05:31:21.794Z,1014.25
2017-03-16T05:32:21.811Z,1014.25
2017-03-16T05:33:21.825Z,1014.21
2017-03-16T05:34:21.837Z,1014.16
2017-03-16T05:35:21.852Z,1014.12
2017-03-16T05:36:21.866Z,1014.09
2017-03-16T05:37:21.878Z,1014.13
2017-03-16T05:38:21.894Z,1014.14
2017-03-16T05:39:21.909Z,1014.14
2017-03-16T05:40:21.923Z,1014.16
2017-03-16T05:41:21.938Z,1014.17
2017-03-16T05:42:21.950Z,1014.15
2017-03-16T05:43:21.965Z,1014.16
2017-03-16T05:44:21.978Z,1014.12
2017-03-16T05:45:21.993Z,1014.12
2017-03-16T05:46:22.008Z,1014.11
2017-03-16T05:47:22.022Z,1014.1
2017-03-16T05:48:22.036Z,1014.11
2017-03-16T05:49:22.051Z,1014.14
2017-03-16T05:50:22.065Z,1014.17
2017-03-16T05:51:22.081Z,1014.18
2017-03-16T05:52:22.093Z,1014.19
2017-03-16T05:53:22.107Z,1014.2
2017-03-16T05:54:22.124Z,1014.21
2017-03-16T05:55:22.137Z,1014.23
2017-03-16T05:56:22.148Z,1014.21
2017-03-16T05:57:22.165Z,1014.21
2017-03-16T05:58:22.180Z,1014.18
2017-03-16T05:59:22.192Z,1014.21
2017-03-16T06:00:22.209Z,1014.22
2017-03-16T06:01:22.221Z,1014.23
2017-03-16T06:02:22.241Z,1014.28
2017-03-16T06:03:22.249Z,1014.29
2017-03-16T06:04:22.289Z,1014.29
2017-03-16T06:05:22.278Z,1014.26
2017-03-16T06:06:22.291Z,1014.23
2017-03-16T06:07:22.307Z,1014.2
2017-03-16T06:08:22.322Z,1014.16
2017-03-16T06:09:22.335Z,1014.15
2017-03-16T06:10:22.349Z,1014.14
2017-03-16T06:11:22.363Z,1014.17
2017-03-16T06:12:22.378Z,1014.15
2017-03-16T06:13:22.399Z,1014.18
2017-03-16T06:14:22.403Z,1014.25
2017-03-16T06:15:22.420Z,1014.29
2017-03-16T06:16:22.433Z,1014.31
2017-03-16T06:17:22.446Z,1014.37
2017-03-16T06:18:22.463Z,1014.4
2017-03-16T06:19:22.475Z,1014.42
2017-03-16T06:20:22.491Z,1014.44
2017-03-16T06:21:22.502Z,1014.45
2017-03-16T06:22:22.520Z,1014.44
2017-03-16T06:23:22.544Z,1014.44
2017-03-16T06:24:22.546Z,1014.43
2017-03-16T06:25:22.560Z,1014.43
2017-03-16T06:26:22.574Z,1014.43
2017-03-16T06:27:22.588Z,1014.41
2017-03-16T06:28:22.602Z,1014.43
2017-03-16T06:29:22.615Z,1014.42
2017-03-16T06:30:22.630Z,1014.4
2017-03-16T06:31:22.645Z,1014.39
2017-03-16T06:32:22.659Z,1014.4
2017-03-16T06:33:22.683Z,1014.33
2017-03-16T06:34:22.689Z,1014.38
2017-03-16T06:35:22.702Z,1014.37
2017-03-16T06:36:22.717Z,1014.38
2017-03-16T06:37:22.731Z,1014.42
2017-03-16T06:38:22.746Z,1014.41
2017-03-16T06:39:22.756Z,1014.43
2017-03-16T06:40:22.772Z,1014.39
2017-03-16T06:41:22.789Z,1014.37
2017-03-16T06:42:22.802Z,1014.32
2017-03-16T06:43:22.814Z,1014.29
2017-03-16T06:44:22.828Z,1014.23
2017-03-16T06:45:22.842Z,1014.25
2017-03-16T06:46:22.855Z,1014.23
2017-03-16T06:47:22.872Z,1014.25
2017-03-16T06:48:22.885Z,1014.3
2017-03-16T06:49:22.899Z,1014.29
2017-03-16T06:50:22.959Z,1014.28
2017-03-16T06:51:22.927Z,1014.28
2017-03-16T06:52:22.939Z,1014.32
2017-03-16T06:53:22.956Z,1014.28
2017-03-16T06:54:22.969Z,1014.27
2017-03-16T06:55:22.983Z,1014.29
2017-03-16T06:56:22.996Z,1014.25
2017-03-16T06:57:23.011Z,1014.26
2017-03-16T06:58:23.026Z,1014.31
2017-03-16T06:59:23.041Z,1014.31
2017-03-16T07:00:23.054Z,1014.34
2017-03-16T07:01:23.067Z,1014.3
2017-03-16T07:02:23.083Z,1014.36
2017-03-16T07:03:23.095Z,1014.37
2017-03-16T07:04:23.111Z,1014.42
2017-03-16T07:05:23.126Z,1014.4
2017-03-16T07:06:23.138Z,1014.43
2017-03-16T07:07:23.151Z,1014.44
2017-03-16T07:08:23.167Z,1014.42
2017-03-16T07:09:23.181Z,1014.43
2017-03-16T07:10:23.195Z,1014.35
2017-03-16T07:11:23.210Z,1014.36
2017-03-16T07:12:23.224Z,1014.3
2017-03-16T07:13:23.238Z,1014.28
2017-03-16T07:14:23.252Z,1014.28
2017-03-16T07:15:23.267Z,1014.23
2017-03-16T07:16:23.282Z,1014.16
2017-03-16T07:17:23.295Z,1014.16
2017-03-16T07:18:23.309Z,1014.13
2017-03-16T07:19:23.322Z,1014.11
2017-03-16T07:20:23.336Z,1014.14
2017-03-16T07:21:23.353Z,1014.18
2017-03-16T07:22:23.366Z,1014.11
2017-03-16T07:23:23.379Z,1014.16
2017-03-16T07:24:23.394Z,1014.16
2017-03-16T07:25:23.409Z,1014.21
2017-03-16T07:26:23.423Z,1014.27
2017-03-16T07:27:23.440Z,1014.31
2017-03-16T07:28:23.452Z,1014.33
2017-03-16T07:29:23.466Z,1014.35
2017-03-16T07:30:23.480Z,1014.29
2017-03-16T07:31:23.495Z,1014.29
2017-03-16T07:32:23.511Z,1014.27
2017-03-16T07:33:23.526Z,1014.29
2017-03-16T07:34:23.539Z,1014.31
2017-03-16T07:35:23.553Z,1014.35
2017-03-16T07:36:23.568Z,1014.32
2017-03-16T07:37:23.582Z,1014.28
2017-03-16T07:38:23.598Z,1014.27
2017-03-16T07:39:23.617Z,1014.17
2017-03-16T07:40:23.625Z,1014.15
2017-03-16T07:41:23.639Z,1014.14
2017-03-16T07:42:23.654Z,1014.11
2017-03-16T07:43:23.669Z,1014.11
2017-03-16T07:44:23.685Z,1014.12
2017-03-16T07:45:23.698Z,1014.11
2017-03-16T07:46:23.711Z,1014.14
2017-03-16T07:47:23.728Z,1014.16
2017-03-16T07:48:23.744Z,1014.23
2017-03-16T07:49:23.755Z,1014.26
2017-03-16T07:50:23.775Z,1014.24
2017-03-16T07:51:23.785Z,1014.26
2017-03-16T07:52:23.797Z,1014.25
2017-03-16T07:53:23.815Z,1014.28
2017-03-16T07:54:23.829Z,1014.25
2017-03-16T07:55:23.844Z,1014.25
2017-03-16T07:56:23.858Z,1014.28
2017-03-16T07:57:23.870Z,1014.3
2017-03-16T07:58:23.887Z,1014.36
2017-03-16T07:59:23.899Z,1014.36
2017-03-16T08:00:23.930Z,1014.4
2017-03-16T08:01:23.932Z,1014.42
2017-03-16T08:02:23.946Z,1014.44
2017-03-16T08:03:23.959Z,1014.39
2017-03-16T08:04:23.974Z,1014.42
2017-03-16T08:05:23.990Z,1014.38
2017-03-16T08:06:24.005Z,1014.36
2017-03-16T08:07:24.018Z,1014.33
2017-03-16T08:08:24.034Z,1014.29
2017-03-16T08:09:24.046Z,1014.3
2017-03-16T08:10:24.060Z,1014.29
2017-03-16T08:11:24.084Z,1014.25
2017-03-16T08:12:24.091Z,1014.27
2017-03-16T08:13:24.108Z,1014.25
2017-03-16T08:14:24.119Z,1014.29
2017-03-16T08:15:24.136Z,1014.24
2017-03-16T08:16:24.151Z,1014.25
2017-03-16T08:17:24.166Z,1014.27
2017-03-16T08:18:24.180Z,1014.2
2017-03-16T08:19:24.195Z,1014.24
2017-03-16T08:20:24.209Z,1014.2
2017-03-16T08:21:24.224Z,1014.25
2017-03-16T08:22:24.241Z,1014.21
2017-03-16T08:23:24.254Z,1014.22
2017-03-16T08:24:24.267Z,1014.21
2017-03-16T08:25:24.288Z,1014.19
2017-03-16T08:26:24.299Z,1014.2
2017-03-16T08:27:24.313Z,1014.2
2017-03-16T08:28:24.328Z,1014.19
2017-03-16T08:29:24.342Z,1014.21
2017-03-16T08:30:24.361Z,1014.2
2017-03-16T08:31:24.373Z,1014.14
2017-03-16T08:32:24.390Z,1014.14
2017-03-16T08:33:24.403Z,1014.12
2017-03-16T08:34:24.416Z,1014.11
2017-03-16T08:35:24.433Z,1014.09
2017-03-16T08:36:24.448Z,1014.09
2017-03-16T08:37:24.463Z,1014.09
2017-03-16T08:38:24.477Z,1014.11
2017-03-16T08:39:24.492Z,1014.11
2017-03-16T08:40:24.506Z,1014.06
2017-03-16T08:41:24.522Z,1014.1
2017-03-16T08:42:24.536Z,1014.07
2017-03-16T08:43:24.552Z,1014.05
2017-03-16T08:44:24.569Z,1014.05
2017-03-16T08:45:24.584Z,1014.09
2017-03-16T08:46:24.600Z,1014.04
2017-03-16T08:47:24.614Z,1014.03
2017-03-16T08:48:24.630Z,1014.03
2017-03-16T08:49:24.644Z,1014.01
2017-03-16T08:50:24.658Z,1014.08
2017-03-16T08:51:24.674Z,1014.1
2017-03-16T08:52:24.689Z,1014.08
2017-03-16T08:53:24.704Z,1014.06
2017-03-16T08:54:24.721Z,1014.04
2017-03-16T08:55:24.735Z,1014.03
2017-03-16T08:56:24.754Z,1014.01
2017-03-16T08:57:24.766Z,1014.01
2017-03-16T08:58:24.781Z,1014.01
2017-03-16T08:59:24.796Z,1013.98
2017-03-16T09:00:24.811Z,1013.94
2017-03-16T09:01:24.827Z,1013.97
2017-03-16T09:02:24.842Z,1013.96
2017-03-16T09:03:24.860Z,1013.9
2017-03-16T09:04:24.875Z,1013.93
2017-03-16T09:05:24.890Z,1013.97
2017-03-16T09:06:24.905Z,1013.96
2017-03-16T09:07:24.919Z,1013.97
2017-03-16T09:08:24.935Z,1013.95
2017-03-16T09:09:24.951Z,1013.96
2017-03-16T09:10:24.965Z,1013.89
2017-03-16T09:11:24.983Z,1013.92
2017-03-16T09:12:24.997Z,1013.89
2017-03-16T09:13:25.013Z,1013.85
2017-03-16T09:14:25.029Z,1013.84
2017-03-16T09:15:25.045Z,1013.83
2017-03-16T09:16:25.060Z,1013.86
2017-03-16T09:17:25.075Z,1013.9
2017-03-16T09:18:25.094Z,1013.91
2017-03-16T09:19:25.108Z,1013.87
2017-03-16T09:20:25.122Z,1013.83
2017-03-16T09:21:25.138Z,1013.88
2017-03-16T09:22:25.154Z,1013.87
2017-03-16T09:23:25.168Z,1013.86
2017-03-16T09:24:25.184Z,1013.79
2017-03-16T09:25:25.199Z,1013.8
2017-03-16T09:26:25.217Z,1013.78
2017-03-16T09:27:25.232Z,1013.83
2017-03-16T09:28:25.246Z,1013.86
2017-03-16T09:29:25.261Z,1013.8
2017-03-16T09:30:25.279Z,1013.85
2017-03-16T09:31:25.294Z,1013.84
2017-03-16T09:32:25.312Z,1013.84
2017-03-16T09:33:25.326Z,1013.86
2017-03-16T09:34:25.340Z,1013.86
2017-03-16T09:35:25.357Z,1013.86
2017-03-16T09:36:25.374Z,1013.81
2017-03-16T09:37:25.389Z,1013.78
2017-03-16T09:38:25.404Z,1013.79
2017-03-16T09:39:25.420Z,1013.79
2017-03-16T09:40:25.435Z,1013.79
2017-03-16T09:41:25.451Z,1013.81
2017-03-16T09:42:25.466Z,1013.77
2017-03-16T09:43:25.484Z,1013.71
2017-03-16T09:44:25.500Z,1013.73
2017-03-16T09:45:25.516Z,1013.72
2017-03-16T09:46:25.530Z,1013.74
2017-03-16T09:47:25.546Z,1013.68
2017-03-16T09:48:25.564Z,1013.71
2017-03-16T09:49:25.578Z,1013.67
2017-03-16T09:50:25.593Z,1013.68
2017-03-16T09:51:25.610Z,1013.7
2017-03-16T09:52:25.626Z,1013.68
2017-03-16T09:53:25.641Z,1013.68
2017-03-16T09:54:25.657Z,1013.71
2017-03-16T09:55:25.676Z,1013.64
2017-03-16T09:56:25.804Z,1013.73
2017-03-16T09:57:25.706Z,1013.68
2017-03-16T09:58:25.822Z,1013.74
2017-03-16T09:59:25.739Z,1013.7
2017-03-16T10:00:25.754Z,1013.66
2017-03-16T10:01:25.771Z,1013.67
2017-03-16T10:02:25.789Z,1013.67
2017-03-16T10:03:25.804Z,1013.63
2017-03-16T10:04:25.820Z,1013.64
2017-03-16T10:05:25.838Z,1013.61
2017-03-16T10:06:25.851Z,1013.6
2017-03-16T10:07:25.867Z,1013.6
2017-03-16T10:08:25.885Z,1013.57
2017-03-16T10:09:25.901Z,1013.55
2017-03-16T10:10:25.918Z,1013.55
2017-03-16T10:11:25.932Z,1013.52
2017-03-16T10:12:25.949Z,1013.52
2017-03-16T10:13:25.966Z,1013.54
2017-03-16T10:14:25.983Z,1013.52
2017-03-16T10:15:25.998Z,1013.53
2017-03-16T10:16:26.021Z,1013.5
2017-03-16T10:17:26.031Z,1013.54
2017-03-16T10:18:26.049Z,1013.47
2017-03-16T10:19:26.066Z,1013.5
2017-03-16T10:20:26.081Z,1013.46
2017-03-16T10:21:26.099Z,1013.46
2017-03-16T10:22:26.114Z,1013.49
2017-03-16T10:23:26.130Z,1013.42
2017-03-16T10:24:26.147Z,1013.42
2017-03-16T10:25:26.165Z,1013.4
2017-03-16T10:26:26.183Z,1013.37
2017-03-16T10:27:26.196Z,1013.41
2017-03-16T10:28:26.213Z,1013.41
2017-03-16T10:29:26.229Z,1013.41
2017-03-16T10:30:26.246Z,1013.41
2017-03-16T10:31:26.265Z,1013.38
2017-03-16T10:32:26.280Z,1013.36
2017-03-16T10:33:26.296Z,1013.34
2017-03-16T10:34:26.313Z,1013.32
2017-03-16T10:35:26.329Z,1013.36
2017-03-16T10:36:26.348Z,1013.34
2017-03-16T10:37:26.365Z,1013.28
2017-03-16T10:38:26.381Z,1013.34
2017-03-16T10:39:26.398Z,1013.33
2017-03-16T10:40:26.413Z,1013.33
2017-03-16T10:41:26.433Z,1013.33
2017-03-16T10:42:26.450Z,1013.29
2017-03-16T10:43:26.466Z,1013.28
2017-03-16T10:44:26.482Z,1013.26
2017-03-16T10:45:26.501Z,1013.21
2017-03-16T10:46:26.516Z,1013.19
2017-03-16T10:47:26.534Z,1013.19
2017-03-16T10:48:26.550Z,1013.18
2017-03-16T10:49:26.567Z,1013.15
2017-03-16T10:50:26.584Z,1013.1
2017-03-16T10:51:26.602Z,1013.08
2017-03-16T10:52:26.620Z,1013.05
2017-03-16T10:53:26.638Z,1013.06
2017-03-16T10:54:26.658Z,1013.03
2017-03-16T10:55:26.671Z,1013.04
2017-03-16T10:56:26.688Z,1012.95
2017-03-16T10:57:26.705Z,1012.97
2017-03-16T10:58:26.723Z,1012.94
2017-03-16T10:59:26.739Z,1012.94
2017-03-16T11:00:26.758Z,1012.98
2017-03-16T11:01:26.776Z,1012.97
2017-03-16T11:02:26.791Z,1012.98
2017-03-16T11:03:26.811Z,1012.98
2017-03-16T11:04:26.826Z,1012.93
2017-03-16T11:05:26.845Z,1012.95
2017-03-16T11:06:26.883Z,1012.96
2017-03-16T11:07:26.879Z,1012.95
2017-03-16T11:08:26.898Z,1012.89
2017-03-16T11:09:26.914Z,1012.91
2017-03-16T11:10:26.931Z,1012.87
2017-03-16T11:11:26.950Z,1012.86
2017-03-16T11:12:26.968Z,1012.85
2017-03-16T11:13:26.985Z,1012.8
2017-03-16T11:14:27.004Z,1012.85
2017-03-16T11:15:27.022Z,1012.78
2017-03-16T11:16:27.041Z,1012.78
2017-03-16T11:17:27.057Z,1012.76
2017-03-16T11:18:27.075Z,1012.76
2017-03-16T11:19:27.092Z,1012.79
2017-03-16T11:20:27.116Z,1012.78
2017-03-16T11:21:27.128Z,1012.76
2017-03-16T11:22:27.146Z,1012.72
2017-03-16T11:23:27.165Z,1012.68
2017-03-16T11:24:27.182Z,1012.71
2017-03-16T11:25:27.201Z,1012.73
2017-03-16T11:26:27.218Z,1012.7
2017-03-16T11:27:27.237Z,1012.66
2017-03-16T11:28:27.253Z,1012.65
2017-03-16T11:29:27.273Z,1012.64
2017-03-16T11:30:27.291Z,1012.66
2017-03-16T11:31:27.307Z,1012.64
2017-03-16T11:32:27.327Z,1012.59
2017-03-16T11:33:27.345Z,1012.55
2017-03-16T11:34:27.363Z,1012.54
2017-03-16T11:35:27.381Z,1012.53
2017-03-16T11:36:27.399Z,1012.51
2017-03-16T11:37:27.418Z,1012.51
2017-03-16T11:38:27.437Z,1012.51
2017-03-16T11:39:27.454Z,1012.48
2017-03-16T11:40:27.474Z,1012.5
2017-03-16T11:41:27.491Z,1012.47
2017-03-16T11:42:27.511Z,1012.4
2017-03-16T11:43:27.527Z,1012.45
2017-03-16T11:44:27.545Z,1012.42
2017-03-16T11:45:27.565Z,1012.4
2017-03-16T11:46:27.583Z,1012.36
2017-03-16T11:47:27.601Z,1012.37
2017-03-16T11:48:27.620Z,1012.34
2017-03-16T11:49:27.639Z,1012.35
2017-03-16T11:50:27.657Z,1012.37
2017-03-16T11:51:27.676Z,1012.31
2017-03-16T11:52:27.696Z,1012.31
2017-03-16T11:53:27.719Z,1012.33
2017-03-16T11:54:27.733Z,1012.29
2017-03-16T11:55:27.752Z,1012.23
2017-03-16T11:56:27.772Z,1012.23
2017-03-16T11:57:27.932Z,1012.22
2017-03-16T11:58:27.808Z,1012.24
2017-03-16T11:59:27.826Z,1012.21
2017-03-16T12:00:27.848Z,1012.22
2017-03-16T12:01:27.864Z,1012.22
2017-03-16T12:02:27.885Z,1012.19
2017-03-16T12:03:27.904Z,1012.22
2017-03-16T12:04:27.920Z,1012.2
2017-03-16T12:05:27.939Z,1012.18
2017-03-16T12:06:27.958Z,1012.21
2017-03-16T12:07:27.978Z,1012.21
2017-03-16T12:08:27.996Z,1012.19